sensor_id;sensor_type;location;lat;lon;timestamp;P1;durP1;ratioP1;P2;durP2;ratioP2
72621;SDS011;60665;53.506;9.582;2023-07-16T00:01:12;4.40;;;1.33;;
72621;SDS011;60665;53.506;9.582;2023-07-16T00:03:38;5.45;;;1.48;;
72621;SDS011;60665;53.506;9.582;2023-07-16T00:06:03;7.00;;;1.33;;
72621;SDS011;60665;53.506;9.582;2023-07-16T00:08:28;4.00;;;1.20;;
72621;SDS011;60665;53.506;9.582;2023-07-16T00:10:54;3.15;;;1.00;;
72621;SDS011;60665;53.506;9.582;2023-07-16T00:13:19;3.22;;;1.10;;
72621;SDS011;60665;53.506;9.582;2023-07-16T00:15:45;4.53;;;1.20;;
72621;SDS011;60665;53.506;9.582;2023-07-16T00:18:10;3.70;;;0.82;;
72621;SDS011;60665;53.506;9.582;2023-07-16T00:20:35;2.63;;;0.93;;
72621;SDS011;60665;53.506;9.582;2023-07-16T00:23:01;2.67;;;1.10;;
72621;SDS011;60665;53.506;9.582;2023-07-16T00:25:26;3.92;;;1.15;;
72621;SDS011;60665;53.506;9.582;2023-07-16T00:27:51;4.28;;;0.90;;
72621;SDS011;60665;53.506;9.582;2023-07-16T00:30:17;3.72;;;1.10;;
72621;SDS011;60665;53.506;9.582;2023-07-16T00:32:42;4.15;;;1.60;;
72621;SDS011;60665;53.506;9.582;2023-07-16T00:35:08;3.30;;;1.08;;
72621;SDS011;60665;53.506;9.582;2023-07-16T00:37:34;2.28;;;1.00;;
72621;SDS011;60665;53.506;9.582;2023-07-16T00:39:59;5.15;;;1.27;;
72621;SDS011;60665;53.506;9.582;2023-07-16T00:42:25;2.83;;;1.00;;
72621;SDS011;60665;53.506;9.582;2023-07-16T00:44:50;3.38;;;1.02;;
72621;SDS011;60665;53.506;9.582;2023-07-16T00:47:16;2.78;;;1.10;;
72621;SDS011;60665;53.506;9.582;2023-07-16T00:49:41;3.60;;;1.08;;
72621;SDS011;60665;53.506;9.582;2023-07-16T00:52:08;2.80;;;1.23;;
72621;SDS011;60665;53.506;9.582;2023-07-16T00:54:37;3.00;;;1.20;;
72621;SDS011;60665;53.506;9.582;2023-07-16T00:57:03;3.30;;;1.30;;
72621;SDS011;60665;53.506;9.582;2023-07-16T00:59:28;2.53;;;0.98;;
72621;SDS011;60665;53.506;9.582;2023-07-16T01:01:54;3.53;;;1.00;;
72621;SDS011;60665;53.506;9.582;2023-07-16T01:04:19;2.30;;;0.90;;
72621;SDS011;60665;53.506;9.582;2023-07-16T01:06:47;4.63;;;1.20;;
72621;SDS011;60665;53.506;9.582;2023-07-16T01:09:15;4.05;;;1.30;;
72621;SDS011;60665;53.506;9.582;2023-07-16T01:11:42;3.25;;;1.02;;
72621;SDS011;60665;53.506;9.582;2023-07-16T01:14:08;2.60;;;1.00;;
72621;SDS011;60665;53.506;9.582;2023-07-16T01:16:33;2.42;;;0.98;;
72621;SDS011;60665;53.506;9.582;2023-07-16T01:18:59;3.08;;;1.25;;
72621;SDS011;60665;53.506;9.582;2023-07-16T01:21:24;3.20;;;1.10;;
72621;SDS011;60665;53.506;9.582;2023-07-16T01:24:23;2.97;;;1.13;;
72621;SDS011;60665;53.506;9.582;2023-07-16T01:32:16;4.40;;;1.05;;
72621;SDS011;60665;53.506;9.582;2023-07-16T01:34:42;2.70;;;1.08;;
72621;SDS011;60665;53.506;9.582;2023-07-16T01:37:07;2.53;;;1.10;;
72621;SDS011;60665;53.506;9.582;2023-07-16T01:39:33;3.38;;;1.05;;
72621;SDS011;60665;53.506;9.582;2023-07-16T01:41:59;3.90;;;1.20;;
72621;SDS011;60665;53.506;9.582;2023-07-16T01:44:24;3.05;;;1.10;;
72621;SDS011;60665;53.506;9.582;2023-07-16T01:47:04;2.65;;;1.00;;
72621;SDS011;60665;53.506;9.582;2023-07-16T01:49:31;3.58;;;1.13;;
72621;SDS011;60665;53.506;9.582;2023-07-16T01:51:56;3.45;;;1.15;;
72621;SDS011;60665;53.506;9.582;2023-07-16T01:54:21;3.08;;;1.08;;
72621;SDS011;60665;53.506;9.582;2023-07-16T01:56:47;2.83;;;1.20;;
72621;SDS011;60665;53.506;9.582;2023-07-16T01:59:12;4.07;;;1.15;;
72621;SDS011;60665;53.506;9.582;2023-07-16T02:01:37;2.67;;;1.00;;
72621;SDS011;60665;53.506;9.582;2023-07-16T02:04:03;3.40;;;1.17;;
72621;SDS011;60665;53.506;9.582;2023-07-16T02:06:28;4.00;;;1.20;;
72621;SDS011;60665;53.506;9.582;2023-07-16T02:08:54;3.00;;;1.25;;
72621;SDS011;60665;53.506;9.582;2023-07-16T02:11:19;3.22;;;1.10;;
72621;SDS011;60665;53.506;9.582;2023-07-16T02:13:45;3.78;;;1.48;;
72621;SDS011;60665;53.506;9.582;2023-07-16T02:16:10;6.30;;;1.40;;
72621;SDS011;60665;53.506;9.582;2023-07-16T02:18:35;3.35;;;1.20;;
72621;SDS011;60665;53.506;9.582;2023-07-16T02:21:01;2.38;;;1.10;;
72621;SDS011;60665;53.506;9.582;2023-07-16T02:23:27;3.40;;;1.20;;
72621;SDS011;60665;53.506;9.582;2023-07-16T02:25:52;3.65;;;1.30;;
72621;SDS011;60665;53.506;9.582;2023-07-16T02:28:18;4.03;;;1.30;;
72621;SDS011;60665;53.506;9.582;2023-07-16T02:30:43;3.70;;;1.20;;
72621;SDS011;60665;53.506;9.582;2023-07-16T02:33:09;4.40;;;1.30;;
72621;SDS011;60665;53.506;9.582;2023-07-16T02:35:34;3.03;;;1.30;;
72621;SDS011;60665;53.506;9.582;2023-07-16T02:38:00;3.58;;;1.02;;
72621;SDS011;60665;53.506;9.582;2023-07-16T02:40:25;4.20;;;1.30;;
72621;SDS011;60665;53.506;9.582;2023-07-16T02:42:50;3.35;;;1.38;;
72621;SDS011;60665;53.506;9.582;2023-07-16T02:45:16;3.78;;;1.48;;
72621;SDS011;60665;53.506;9.582;2023-07-16T02:47:41;3.30;;;1.10;;
72621;SDS011;60665;53.506;9.582;2023-07-16T02:50:07;3.65;;;1.35;;
72621;SDS011;60665;53.506;9.582;2023-07-16T02:52:32;3.97;;;1.05;;
72621;SDS011;60665;53.506;9.582;2023-07-16T02:54:58;3.47;;;1.30;;
72621;SDS011;60665;53.506;9.582;2023-07-16T02:57:23;8.25;;;1.40;;
72621;SDS011;60665;53.506;9.582;2023-07-16T02:59:48;2.80;;;1.33;;
72621;SDS011;60665;53.506;9.582;2023-07-16T03:02:14;4.50;;;1.58;;
72621;SDS011;60665;53.506;9.582;2023-07-16T03:04:39;3.28;;;1.20;;
72621;SDS011;60665;53.506;9.582;2023-07-16T03:07:05;4.93;;;1.40;;
72621;SDS011;60665;53.506;9.582;2023-07-16T03:09:30;2.97;;;1.15;;
72621;SDS011;60665;53.506;9.582;2023-07-16T03:11:56;3.38;;;1.40;;
72621;SDS011;60665;53.506;9.582;2023-07-16T03:14:21;4.82;;;1.20;;
72621;SDS011;60665;53.506;9.582;2023-07-16T03:16:46;3.28;;;1.40;;
72621;SDS011;60665;53.506;9.582;2023-07-16T03:19:12;4.13;;;1.30;;
72621;SDS011;60665;53.506;9.582;2023-07-16T03:21:37;5.45;;;1.20;;
72621;SDS011;60665;53.506;9.582;2023-07-16T03:24:03;3.72;;;1.45;;
72621;SDS011;60665;53.506;9.582;2023-07-16T03:26:28;4.40;;;1.27;;
72621;SDS011;60665;53.506;9.582;2023-07-16T03:28:54;4.03;;;1.20;;
72621;SDS011;60665;53.506;9.582;2023-07-16T03:31:20;3.10;;;1.20;;
72621;SDS011;60665;53.506;9.582;2023-07-16T03:33:45;5.10;;;1.30;;
72621;SDS011;60665;53.506;9.582;2023-07-16T03:36:11;3.28;;;1.20;;
72621;SDS011;60665;53.506;9.582;2023-07-16T03:38:36;5.07;;;1.10;;
72621;SDS011;60665;53.506;9.582;2023-07-16T03:41:02;3.40;;;1.30;;
72621;SDS011;60665;53.506;9.582;2023-07-16T03:43:27;2.80;;;1.10;;
72621;SDS011;60665;53.506;9.582;2023-07-16T03:45:53;3.28;;;1.23;;
72621;SDS011;60665;53.506;9.582;2023-07-16T03:48:18;3.60;;;1.25;;
72621;SDS011;60665;53.506;9.582;2023-07-16T03:50:43;3.13;;;1.30;;
72621;SDS011;60665;53.506;9.582;2023-07-16T03:53:09;5.18;;;1.50;;
72621;SDS011;60665;53.506;9.582;2023-07-16T03:55:34;2.22;;;0.90;;
72621;SDS011;60665;53.506;9.582;2023-07-16T03:58:01;4.72;;;1.40;;
72621;SDS011;60665;53.506;9.582;2023-07-16T04:00:26;2.67;;;1.00;;
72621;SDS011;60665;53.506;9.582;2023-07-16T04:02:52;4.93;;;1.70;;
72621;SDS011;60665;53.506;9.582;2023-07-16T04:05:17;4.68;;;1.30;;
72621;SDS011;60665;53.506;9.582;2023-07-16T04:07:43;2.40;;;1.05;;
72621;SDS011;60665;53.506;9.582;2023-07-16T04:10:09;2.88;;;1.10;;
72621;SDS011;60665;53.506;9.582;2023-07-16T04:12:34;4.18;;;1.40;;
72621;SDS011;60665;53.506;9.582;2023-07-16T04:14:59;3.65;;;1.20;;
72621;SDS011;60665;53.506;9.582;2023-07-16T04:17:25;3.10;;;1.05;;
72621;SDS011;60665;53.506;9.582;2023-07-16T04:19:51;4.82;;;1.38;;
72621;SDS011;60665;53.506;9.582;2023-07-16T04:22:16;4.95;;;1.48;;
72621;SDS011;60665;53.506;9.582;2023-07-16T04:24:42;4.97;;;2.17;;
72621;SDS011;60665;53.506;9.582;2023-07-16T04:27:07;3.38;;;1.50;;
72621;SDS011;60665;53.506;9.582;2023-07-16T04:29:33;3.22;;;1.20;;
72621;SDS011;60665;53.506;9.582;2023-07-16T04:31:58;5.35;;;1.63;;
72621;SDS011;60665;53.506;9.582;2023-07-16T04:34:23;3.63;;;1.13;;
72621;SDS011;60665;53.506;9.582;2023-07-16T04:36:49;6.40;;;1.15;;
72621;SDS011;60665;53.506;9.582;2023-07-16T04:39:14;3.40;;;1.13;;
72621;SDS011;60665;53.506;9.582;2023-07-16T04:41:40;2.95;;;1.17;;
72621;SDS011;60665;53.506;9.582;2023-07-16T04:44:05;4.13;;;1.20;;
72621;SDS011;60665;53.506;9.582;2023-07-16T04:46:31;5.78;;;1.38;;
72621;SDS011;60665;53.506;9.582;2023-07-16T04:48:56;3.28;;;1.13;;
72621;SDS011;60665;53.506;9.582;2023-07-16T04:51:22;4.15;;;1.23;;
72621;SDS011;60665;53.506;9.582;2023-07-16T04:53:48;4.28;;;1.30;;
72621;SDS011;60665;53.506;9.582;2023-07-16T04:56:13;6.60;;;1.33;;
72621;SDS011;60665;53.506;9.582;2023-07-16T04:58:39;3.33;;;1.40;;
72621;SDS011;60665;53.506;9.582;2023-07-16T05:01:05;4.50;;;1.38;;
72621;SDS011;60665;53.506;9.582;2023-07-16T05:03:30;3.85;;;1.30;;
72621;SDS011;60665;53.506;9.582;2023-07-16T05:05:56;3.70;;;1.20;;
72621;SDS011;60665;53.506;9.582;2023-07-16T05:08:21;5.72;;;1.20;;
72621;SDS011;60665;53.506;9.582;2023-07-16T05:10:47;4.07;;;1.60;;
72621;SDS011;60665;53.506;9.582;2023-07-16T05:13:12;6.25;;;1.30;;
72621;SDS011;60665;53.506;9.582;2023-07-16T05:15:38;3.10;;;0.90;;
72621;SDS011;60665;53.506;9.582;2023-07-16T05:18:03;3.42;;;1.20;;
72621;SDS011;60665;53.506;9.582;2023-07-16T05:20:29;4.20;;;1.23;;
72621;SDS011;60665;53.506;9.582;2023-07-16T05:22:54;3.97;;;1.20;;
72621;SDS011;60665;53.506;9.582;2023-07-16T05:25:20;5.97;;;1.45;;
72621;SDS011;60665;53.506;9.582;2023-07-16T05:27:45;3.50;;;1.10;;
72621;SDS011;60665;53.506;9.582;2023-07-16T05:30:11;2.97;;;1.00;;
72621;SDS011;60665;53.506;9.582;2023-07-16T05:32:36;4.60;;;1.20;;
72621;SDS011;60665;53.506;9.582;2023-07-16T05:35:02;4.18;;;1.17;;
72621;SDS011;60665;53.506;9.582;2023-07-16T05:37:27;4.32;;;1.20;;
72621;SDS011;60665;53.506;9.582;2023-07-16T05:39:53;2.78;;;1.10;;
72621;SDS011;60665;53.506;9.582;2023-07-16T05:42:18;3.38;;;1.33;;
72621;SDS011;60665;53.506;9.582;2023-07-16T05:44:44;3.63;;;1.13;;
72621;SDS011;60665;53.506;9.582;2023-07-16T05:47:12;4.97;;;1.60;;
72621;SDS011;60665;53.506;9.582;2023-07-16T05:49:37;4.07;;;1.35;;
72621;SDS011;60665;53.506;9.582;2023-07-16T05:52:03;5.32;;;1.40;;
72621;SDS011;60665;53.506;9.582;2023-07-16T05:54:29;4.72;;;1.23;;
72621;SDS011;60665;53.506;9.582;2023-07-16T05:56:54;3.70;;;1.10;;
72621;SDS011;60665;53.506;9.582;2023-07-16T05:59:20;3.13;;;1.10;;
72621;SDS011;60665;53.506;9.582;2023-07-16T06:01:45;2.90;;;1.10;;
72621;SDS011;60665;53.506;9.582;2023-07-16T06:04:10;3.65;;;1.08;;
72621;SDS011;60665;53.506;9.582;2023-07-16T06:06:36;3.35;;;1.20;;
72621;SDS011;60665;53.506;9.582;2023-07-16T06:09:01;3.63;;;1.33;;
72621;SDS011;60665;53.506;9.582;2023-07-16T06:11:26;4.25;;;1.10;;
72621;SDS011;60665;53.506;9.582;2023-07-16T06:13:55;2.65;;;1.08;;
72621;SDS011;60665;53.506;9.582;2023-07-16T06:16:20;4.43;;;1.13;;
72621;SDS011;60665;53.506;9.582;2023-07-16T06:18:46;2.13;;;1.00;;
72621;SDS011;60665;53.506;9.582;2023-07-16T06:21:11;3.88;;;1.20;;
72621;SDS011;60665;53.506;9.582;2023-07-16T06:23:37;3.97;;;1.30;;
72621;SDS011;60665;53.506;9.582;2023-07-16T06:26:03;4.57;;;1.20;;
72621;SDS011;60665;53.506;9.582;2023-07-16T06:28:28;3.33;;;1.50;;
72621;SDS011;60665;53.506;9.582;2023-07-16T06:30:54;7.18;;;1.50;;
72621;SDS011;60665;53.506;9.582;2023-07-16T06:33:19;4.40;;;1.60;;
72621;SDS011;60665;53.506;9.582;2023-07-16T06:35:45;3.80;;;1.60;;
72621;SDS011;60665;53.506;9.582;2023-07-16T06:38:12;7.32;;;1.50;;
72621;SDS011;60665;53.506;9.582;2023-07-16T06:40:38;6.07;;;1.42;;
72621;SDS011;60665;53.506;9.582;2023-07-16T06:43:04;3.78;;;1.30;;
72621;SDS011;60665;53.506;9.582;2023-07-16T06:45:29;3.70;;;1.50;;
72621;SDS011;60665;53.506;9.582;2023-07-16T06:47:55;5.57;;;1.80;;
72621;SDS011;60665;53.506;9.582;2023-07-16T06:50:20;5.03;;;1.88;;
72621;SDS011;60665;53.506;9.582;2023-07-16T06:52:45;4.15;;;1.65;;
72621;SDS011;60665;53.506;9.582;2023-07-16T06:55:11;4.75;;;1.63;;
72621;SDS011;60665;53.506;9.582;2023-07-16T06:57:36;6.68;;;1.60;;
72621;SDS011;60665;53.506;9.582;2023-07-16T07:00:02;5.20;;;1.55;;
72621;SDS011;60665;53.506;9.582;2023-07-16T07:02:28;4.50;;;1.55;;
72621;SDS011;60665;53.506;9.582;2023-07-16T07:04:54;6.78;;;1.45;;
72621;SDS011;60665;53.506;9.582;2023-07-16T07:07:19;5.53;;;1.73;;
72621;SDS011;60665;53.506;9.582;2023-07-16T07:09:47;3.95;;;1.70;;
72621;SDS011;60665;53.506;9.582;2023-07-16T07:12:13;4.70;;;1.70;;
72621;SDS011;60665;53.506;9.582;2023-07-16T07:14:39;5.25;;;1.63;;
72621;SDS011;60665;53.506;9.582;2023-07-16T07:17:04;3.50;;;1.40;;
72621;SDS011;60665;53.506;9.582;2023-07-16T07:19:30;3.92;;;1.30;;
72621;SDS011;60665;53.506;9.582;2023-07-16T07:21:57;5.32;;;1.60;;
72621;SDS011;60665;53.506;9.582;2023-07-16T07:24:22;5.65;;;1.50;;
72621;SDS011;60665;53.506;9.582;2023-07-16T07:26:48;4.30;;;1.40;;
72621;SDS011;60665;53.506;9.582;2023-07-16T07:29:13;6.10;;;1.48;;
72621;SDS011;60665;53.506;9.582;2023-07-16T07:31:39;4.65;;;1.38;;
72621;SDS011;60665;53.506;9.582;2023-07-16T07:34:05;6.32;;;1.55;;
72621;SDS011;60665;53.506;9.582;2023-07-16T07:36:31;5.55;;;1.30;;
72621;SDS011;60665;53.506;9.582;2023-07-16T07:38:56;7.18;;;1.63;;
72621;SDS011;60665;53.506;9.582;2023-07-16T07:41:22;5.75;;;1.60;;
72621;SDS011;60665;53.506;9.582;2023-07-16T07:43:47;5.30;;;1.27;;
72621;SDS011;60665;53.506;9.582;2023-07-16T07:46:12;5.55;;;1.38;;
72621;SDS011;60665;53.506;9.582;2023-07-16T07:48:38;3.45;;;1.30;;
72621;SDS011;60665;53.506;9.582;2023-07-16T07:51:03;6.13;;;1.13;;
72621;SDS011;60665;53.506;9.582;2023-07-16T07:53:29;4.60;;;1.42;;
72621;SDS011;60665;53.506;9.582;2023-07-16T07:55:54;3.17;;;1.02;;
72621;SDS011;60665;53.506;9.582;2023-07-16T07:58:20;5.18;;;1.50;;
72621;SDS011;60665;53.506;9.582;2023-07-16T08:00:45;3.50;;;1.20;;
72621;SDS011;60665;53.506;9.582;2023-07-16T08:03:10;3.35;;;1.00;;
72621;SDS011;60665;53.506;9.582;2023-07-16T08:05:36;4.22;;;1.10;;
72621;SDS011;60665;53.506;9.582;2023-07-16T08:08:01;3.42;;;1.20;;
72621;SDS011;60665;53.506;9.582;2023-07-16T08:10:27;3.72;;;0.93;;
72621;SDS011;60665;53.506;9.582;2023-07-16T08:12:52;3.80;;;1.20;;
72621;SDS011;60665;53.506;9.582;2023-07-16T08:15:18;5.28;;;1.50;;
72621;SDS011;60665;53.506;9.582;2023-07-16T08:17:44;3.55;;;1.20;;
72621;SDS011;60665;53.506;9.582;2023-07-16T08:20:10;3.20;;;1.10;;
72621;SDS011;60665;53.506;9.582;2023-07-16T08:22:36;3.35;;;1.10;;
72621;SDS011;60665;53.506;9.582;2023-07-16T08:25:02;4.43;;;1.30;;
72621;SDS011;60665;53.506;9.582;2023-07-16T08:27:28;5.00;;;1.67;;
72621;SDS011;60665;53.506;9.582;2023-07-16T08:29:54;5.80;;;1.55;;
72621;SDS011;60665;53.506;9.582;2023-07-16T08:32:20;4.65;;;1.40;;
72621;SDS011;60665;53.506;9.582;2023-07-16T08:34:46;4.70;;;1.55;;
72621;SDS011;60665;53.506;9.582;2023-07-16T08:37:11;4.50;;;1.63;;
72621;SDS011;60665;53.506;9.582;2023-07-16T08:39:37;3.83;;;1.50;;
72621;SDS011;60665;53.506;9.582;2023-07-16T08:42:02;3.75;;;1.42;;
72621;SDS011;60665;53.506;9.582;2023-07-16T08:44:28;3.50;;;1.58;;
72621;SDS011;60665;53.506;9.582;2023-07-16T08:46:54;4.40;;;2.40;;
72621;SDS011;60665;53.506;9.582;2023-07-16T08:49:19;6.18;;;2.13;;
72621;SDS011;60665;53.506;9.582;2023-07-16T08:51:47;6.07;;;2.28;;
72621;SDS011;60665;53.506;9.582;2023-07-16T08:54:13;5.60;;;1.98;;
72621;SDS011;60665;53.506;9.582;2023-07-16T08:56:42;4.22;;;1.80;;
72621;SDS011;60665;53.506;9.582;2023-07-16T08:59:08;5.40;;;2.08;;
72621;SDS011;60665;53.506;9.582;2023-07-16T09:01:35;5.10;;;2.13;;
72621;SDS011;60665;53.506;9.582;2023-07-16T09:04:03;5.22;;;2.00;;
72621;SDS011;60665;53.506;9.582;2023-07-16T09:06:29;5.07;;;1.92;;
72621;SDS011;60665;53.506;9.582;2023-07-16T09:08:55;4.63;;;1.83;;
72621;SDS011;60665;53.506;9.582;2023-07-16T09:11:20;4.60;;;2.05;;
72621;SDS011;60665;53.506;9.582;2023-07-16T09:13:47;5.25;;;1.80;;
72621;SDS011;60665;53.506;9.582;2023-07-16T09:16:13;4.13;;;1.50;;
72621;SDS011;60665;53.506;9.582;2023-07-16T09:18:41;6.05;;;1.80;;
72621;SDS011;60665;53.506;9.582;2023-07-16T09:21:07;4.18;;;1.80;;
72621;SDS011;60665;53.506;9.582;2023-07-16T09:23:32;3.60;;;1.60;;
72621;SDS011;60665;53.506;9.582;2023-07-16T09:25:58;5.60;;;1.90;;
72621;SDS011;60665;53.506;9.582;2023-07-16T09:28:23;4.20;;;1.63;;
72621;SDS011;60665;53.506;9.582;2023-07-16T09:30:49;6.35;;;1.80;;
72621;SDS011;60665;53.506;9.582;2023-07-16T09:33:19;7.05;;;1.88;;
72621;SDS011;60665;53.506;9.582;2023-07-16T09:35:49;4.97;;;2.10;;
72621;SDS011;60665;53.506;9.582;2023-07-16T09:38:15;5.53;;;1.80;;
72621;SDS011;60665;53.506;9.582;2023-07-16T09:40:41;3.95;;;2.10;;
72621;SDS011;60665;53.506;9.582;2023-07-16T09:43:13;4.20;;;1.70;;
72621;SDS011;60665;53.506;9.582;2023-07-16T09:45:38;6.03;;;2.10;;
72621;SDS011;60665;53.506;9.582;2023-07-16T09:48:04;4.55;;;1.83;;
72621;SDS011;60665;53.506;9.582;2023-07-16T09:50:31;4.78;;;1.90;;
72621;SDS011;60665;53.506;9.582;2023-07-16T09:52:58;4.40;;;1.58;;
72621;SDS011;60665;53.506;9.582;2023-07-16T09:55:24;4.72;;;1.58;;
72621;SDS011;60665;53.506;9.582;2023-07-16T09:57:51;4.05;;;1.55;;
72621;SDS011;60665;53.506;9.582;2023-07-16T10:00:18;4.35;;;1.33;;
72621;SDS011;60665;53.506;9.582;2023-07-16T10:05:13;4.30;;;1.63;;
72621;SDS011;60665;53.506;9.582;2023-07-16T10:07:43;5.13;;;1.80;;
72621;SDS011;60665;53.506;9.582;2023-07-16T10:10:14;3.55;;;1.30;;
72621;SDS011;60665;53.506;9.582;2023-07-16T10:12:43;3.05;;;1.42;;
72621;SDS011;60665;53.506;9.582;2023-07-16T10:15:11;4.05;;;1.50;;
72621;SDS011;60665;53.506;9.582;2023-07-16T10:17:37;3.03;;;1.30;;
72621;SDS011;60665;53.506;9.582;2023-07-16T10:24:58;5.28;;;1.70;;
72621;SDS011;60665;53.506;9.582;2023-07-16T10:27:30;4.88;;;1.60;;
72621;SDS011;60665;53.506;9.582;2023-07-16T10:29:57;4.25;;;1.92;;
72621;SDS011;60665;53.506;9.582;2023-07-16T10:32:25;4.15;;;1.73;;
72621;SDS011;60665;53.506;9.582;2023-07-16T10:34:53;4.97;;;1.83;;
72621;SDS011;60665;53.506;9.582;2023-07-16T10:37:18;4.85;;;1.85;;
72621;SDS011;60665;53.506;9.582;2023-07-16T10:39:46;6.28;;;1.70;;
72621;SDS011;60665;53.506;9.582;2023-07-16T10:42:15;3.90;;;1.52;;
72621;SDS011;60665;53.506;9.582;2023-07-16T10:44:41;5.40;;;1.52;;
72621;SDS011;60665;53.506;9.582;2023-07-16T10:47:07;4.38;;;1.55;;
72621;SDS011;60665;53.506;9.582;2023-07-16T10:49:33;6.50;;;1.80;;
72621;SDS011;60665;53.506;9.582;2023-07-16T10:51:59;5.47;;;2.10;;
72621;SDS011;60665;53.506;9.582;2023-07-16T10:54:26;5.82;;;2.03;;
72621;SDS011;60665;53.506;9.582;2023-07-16T10:56:52;3.20;;;1.40;;
72621;SDS011;60665;53.506;9.582;2023-07-16T10:59:18;6.00;;;1.60;;
72621;SDS011;60665;53.506;9.582;2023-07-16T11:01:43;3.55;;;1.60;;
72621;SDS011;60665;53.506;9.582;2023-07-16T11:04:09;6.68;;;1.90;;
72621;SDS011;60665;53.506;9.582;2023-07-16T11:06:34;5.63;;;1.80;;
72621;SDS011;60665;53.506;9.582;2023-07-16T11:09:10;5.60;;;1.90;;
72621;SDS011;60665;53.506;9.582;2023-07-16T11:11:36;5.53;;;1.70;;
72621;SDS011;60665;53.506;9.582;2023-07-16T11:14:05;5.60;;;1.45;;
72621;SDS011;60665;53.506;9.582;2023-07-16T11:16:37;4.03;;;1.60;;
72621;SDS011;60665;53.506;9.582;2023-07-16T11:19:05;7.97;;;1.70;;
72621;SDS011;60665;53.506;9.582;2023-07-16T11:21:35;3.55;;;1.45;;
72621;SDS011;60665;53.506;9.582;2023-07-16T11:24:12;4.40;;;1.65;;
72621;SDS011;60665;53.506;9.582;2023-07-16T11:26:38;4.18;;;1.75;;
72621;SDS011;60665;53.506;9.582;2023-07-16T11:29:14;3.47;;;1.42;;
72621;SDS011;60665;53.506;9.582;2023-07-16T11:31:40;6.10;;;1.90;;
72621;SDS011;60665;53.506;9.582;2023-07-16T11:34:06;4.97;;;1.95;;
72621;SDS011;60665;53.506;9.582;2023-07-16T11:36:32;3.78;;;1.40;;
72621;SDS011;60665;53.506;9.582;2023-07-16T11:38:58;4.35;;;1.88;;
72621;SDS011;60665;53.506;9.582;2023-07-16T11:41:24;4.22;;;1.70;;
72621;SDS011;60665;53.506;9.582;2023-07-16T11:43:49;3.80;;;1.65;;
72621;SDS011;60665;53.506;9.582;2023-07-16T11:46:16;3.10;;;1.52;;
72621;SDS011;60665;53.506;9.582;2023-07-16T11:48:41;3.80;;;1.25;;
72621;SDS011;60665;53.506;9.582;2023-07-16T11:51:07;5.63;;;1.70;;
72621;SDS011;60665;53.506;9.582;2023-07-16T11:53:33;4.82;;;1.52;;
72621;SDS011;60665;53.506;9.582;2023-07-16T11:55:58;3.40;;;1.42;;
72621;SDS011;60665;53.506;9.582;2023-07-16T11:58:24;4.03;;;1.55;;
72621;SDS011;60665;53.506;9.582;2023-07-16T12:00:49;3.70;;;1.40;;
72621;SDS011;60665;53.506;9.582;2023-07-16T12:03:16;4.05;;;1.73;;
72621;SDS011;60665;53.506;9.582;2023-07-16T12:05:41;3.40;;;1.40;;
72621;SDS011;60665;53.506;9.582;2023-07-16T12:08:07;7.43;;;1.80;;
72621;SDS011;60665;53.506;9.582;2023-07-16T12:10:39;3.13;;;1.33;;
72621;SDS011;60665;53.506;9.582;2023-07-16T12:13:07;4.53;;;1.70;;
72621;SDS011;60665;53.506;9.582;2023-07-16T12:15:33;3.50;;;1.60;;
72621;SDS011;60665;53.506;9.582;2023-07-16T12:17:59;5.30;;;1.65;;
72621;SDS011;60665;53.506;9.582;2023-07-16T12:20:24;3.42;;;1.80;;
72621;SDS011;60665;53.506;9.582;2023-07-16T12:22:49;3.45;;;1.50;;
72621;SDS011;60665;53.506;9.582;2023-07-16T12:25:15;3.13;;;1.52;;
72621;SDS011;60665;53.506;9.582;2023-07-16T12:27:41;4.68;;;1.55;;
72621;SDS011;60665;53.506;9.582;2023-07-16T12:30:06;3.20;;;1.40;;
72621;SDS011;60665;53.506;9.582;2023-07-16T12:32:33;3.38;;;1.60;;
72621;SDS011;60665;53.506;9.582;2023-07-16T12:34:58;3.47;;;1.23;;
72621;SDS011;60665;53.506;9.582;2023-07-16T12:37:25;5.40;;;1.60;;
72621;SDS011;60665;53.506;9.582;2023-07-16T12:39:50;6.13;;;1.73;;
72621;SDS011;60665;53.506;9.582;2023-07-16T12:42:16;6.65;;;1.60;;
72621;SDS011;60665;53.506;9.582;2023-07-16T12:44:41;3.50;;;1.27;;
72621;SDS011;60665;53.506;9.582;2023-07-16T12:47:06;3.72;;;1.50;;
72621;SDS011;60665;53.506;9.582;2023-07-16T12:49:33;3.50;;;1.30;;
72621;SDS011;60665;53.506;9.582;2023-07-16T12:51:59;3.50;;;1.40;;
72621;SDS011;60665;53.506;9.582;2023-07-16T12:54:24;3.92;;;1.55;;
72621;SDS011;60665;53.506;9.582;2023-07-16T12:56:50;5.32;;;1.73;;
72621;SDS011;60665;53.506;9.582;2023-07-16T12:59:15;3.85;;;1.50;;
72621;SDS011;60665;53.506;9.582;2023-07-16T13:01:40;3.15;;;1.40;;
72621;SDS011;60665;53.506;9.582;2023-07-16T13:04:06;4.28;;;1.35;;
72621;SDS011;60665;53.506;9.582;2023-07-16T13:06:31;3.25;;;1.50;;
72621;SDS011;60665;53.506;9.582;2023-07-16T13:08:57;3.85;;;1.30;;
72621;SDS011;60665;53.506;9.582;2023-07-16T13:11:22;3.40;;;1.33;;
72621;SDS011;60665;53.506;9.582;2023-07-16T13:13:48;4.07;;;1.23;;
72621;SDS011;60665;53.506;9.582;2023-07-16T13:16:14;3.05;;;1.23;;
72621;SDS011;60665;53.506;9.582;2023-07-16T13:18:39;4.63;;;1.35;;
72621;SDS011;60665;53.506;9.582;2023-07-16T13:21:04;3.45;;;1.10;;
72621;SDS011;60665;53.506;9.582;2023-07-16T13:23:30;3.13;;;1.17;;
72621;SDS011;60665;53.506;9.582;2023-07-16T13:25:55;4.15;;;1.45;;
72621;SDS011;60665;53.506;9.582;2023-07-16T13:28:21;4.13;;;1.50;;
72621;SDS011;60665;53.506;9.582;2023-07-16T13:30:48;3.70;;;1.35;;
72621;SDS011;60665;53.506;9.582;2023-07-16T13:33:13;3.35;;;1.23;;
72621;SDS011;60665;53.506;9.582;2023-07-16T13:35:39;4.15;;;1.30;;
72621;SDS011;60665;53.506;9.582;2023-07-16T13:38:04;4.15;;;1.10;;
72621;SDS011;60665;53.506;9.582;2023-07-16T13:40:30;3.75;;;1.50;;
72621;SDS011;60665;53.506;9.582;2023-07-16T13:42:55;3.20;;;1.40;;
72621;SDS011;60665;53.506;9.582;2023-07-16T13:45:20;4.00;;;1.38;;
72621;SDS011;60665;53.506;9.582;2023-07-16T13:47:46;4.00;;;1.55;;
72621;SDS011;60665;53.506;9.582;2023-07-16T13:50:11;3.30;;;1.33;;
72621;SDS011;60665;53.506;9.582;2023-07-16T13:52:37;3.33;;;1.50;;
72621;SDS011;60665;53.506;9.582;2023-07-16T13:55:02;4.15;;;1.40;;
72621;SDS011;60665;53.506;9.582;2023-07-16T13:57:29;3.65;;;1.55;;
72621;SDS011;60665;53.506;9.582;2023-07-16T13:59:55;3.72;;;1.33;;
72621;SDS011;60665;53.506;9.582;2023-07-16T14:02:20;4.95;;;1.55;;
72621;SDS011;60665;53.506;9.582;2023-07-16T14:04:46;4.95;;;1.50;;
72621;SDS011;60665;53.506;9.582;2023-07-16T14:07:11;3.35;;;1.52;;
72621;SDS011;60665;53.506;9.582;2023-07-16T14:09:37;4.80;;;1.30;;
72621;SDS011;60665;53.506;9.582;2023-07-16T14:12:02;3.92;;;1.42;;
72621;SDS011;60665;53.506;9.582;2023-07-16T14:14:28;5.03;;;1.67;;
72621;SDS011;60665;53.506;9.582;2023-07-16T14:16:53;3.90;;;1.40;;
72621;SDS011;60665;53.506;9.582;2023-07-16T14:19:20;4.47;;;1.45;;
72621;SDS011;60665;53.506;9.582;2023-07-16T14:21:46;4.03;;;1.40;;
72621;SDS011;60665;53.506;9.582;2023-07-16T14:24:11;4.32;;;1.48;;
72621;SDS011;60665;53.506;9.582;2023-07-16T14:26:36;4.22;;;1.70;;
72621;SDS011;60665;53.506;9.582;2023-07-16T14:29:02;3.90;;;1.42;;
72621;SDS011;60665;53.506;9.582;2023-07-16T14:31:27;3.45;;;1.30;;
72621;SDS011;60665;53.506;9.582;2023-07-16T14:33:52;4.20;;;1.63;;
72621;SDS011;60665;53.506;9.582;2023-07-16T14:36:18;4.32;;;1.42;;
72621;SDS011;60665;53.506;9.582;2023-07-16T14:38:43;4.38;;;1.35;;
72621;SDS011;60665;53.506;9.582;2023-07-16T14:41:09;3.90;;;1.42;;
72621;SDS011;60665;53.506;9.582;2023-07-16T14:43:35;3.97;;;1.85;;
72621;SDS011;60665;53.506;9.582;2023-07-16T14:46:00;4.50;;;1.33;;
72621;SDS011;60665;53.506;9.582;2023-07-16T14:48:26;4.28;;;1.13;;
72621;SDS011;60665;53.506;9.582;2023-07-16T14:50:54;3.83;;;1.20;;
72621;SDS011;60665;53.506;9.582;2023-07-16T14:53:19;4.65;;;1.60;;